首页
METAR-TAF:

METAR-TAF

机场 :

香港國際機場

香港, 中华人民共和国

纬度: 22-19N, 经度: 113-55E, 海拔: 9米

当前天气观测

该预报发布于26分钟前的04:00 UTC
风速14节,风向
温度 27°C
湿度 70%
气压 1016 hPa
能见度10公里或以上
少量云层高于1800英尺

METAR: VHHH 180400Z 08014KT 9999 FEW018 27/21 Q1016 NOSIG

时间: 12:26 (04:26 UTC)

预报

该预报发布于5小时和26分钟前的23:00 UTC
预报有效从18日的 00点(UTC)到 19日的 06点(UTC)
风速10节,风向
能见度10公里或以上
少量云层高于1400英尺
散云层高于2500英尺
短暂存在
从 18日的 12点(UTC)到 18日的 17点(UTC)
风速5节,风向多变
短暂存在
从 18日的 15点(UTC)到 18日的 20点(UTC)
能見度: 2000
小雨, 轻雾
成为
从 18日的 17点(UTC)到 18日的 19点(UTC)
风速10节,风向

TAF: VHHH 172300Z 1800/1906 08010KT 9999 FEW014 SCT025 TX27/1807Z TX25/1906Z TN20/1823Z TEMPO 1812/1817 VRB05KT TEMPO 1815/1820 2000 -RA BR BECMG 1817/1819 36010KT

超过4000个机场的气象观测和天气预报(METAR&TAF报告)。

可查询的气象台以黄色和红色小点在地图上表示。

将鼠标移到小点上方,可查看气象台名称。

然后点击查看天气观测和预报。

如需切换地图:点击带黑十字的绿色按钮放大地图;点击带横线的绿色按钮缩小地图;或者点击绿色箭头查看邻近地区的地图。


METAR-TAF: